Time;durP1;ratioP1;P1;durP2;ratioP2;P2;SDS_P1;SDS_P2;PMS_P1;PMS_P2;Temp;Humidity;BMP_temperature;BMP_pressure;BME280_temperature;BME280_humidity;BME280_pressure;Samples;Min_cycle;Max_cycle;Signal;HPM_P1;HPM_P2
2022/08/10 00:01:20;;;;;;;1999.90;999.90;;;;;;;17.47;100.00;95819.28;5098922;28;20208;-56
2022/08/10 00:03:45;;;;;;;1999.90;999.90;;;;;;;17.42;100.00;95822.59;5099365;28;20278;-57
2022/08/10 00:06:11;;;;;;;1999.90;999.90;;;;;;;17.41;100.00;95819.03;5099273;28;20267;-57
2022/08/10 00:08:36;;;;;;;1999.90;999.90;;;;;;;17.42;100.00;95817.06;5099151;28;20208;-56
2022/08/10 00:11:03;;;;;;;1999.90;999.90;;;;;;;17.39;100.00;95817.91;5098980;28;20266;-57
2022/08/10 00:13:29;;;;;;;1999.90;999.90;;;;;;;17.38;100.00;95816.38;5098968;28;20239;-59
2022/08/10 00:15:54;;;;;;;1999.90;999.90;;;;;;;17.30;100.00;95826.06;5099170;28;20222;-56
2022/08/10 00:18:19;;;;;;;1999.90;999.90;;;;;;;17.19;100.00;95807.00;5099089;28;20188;-61
2022/08/10 00:20:45;;;;;;;1999.90;999.90;;;;;;;17.21;100.00;95807.34;5098634;28;20214;-58
2022/08/10 00:23:10;;;;;;;1999.90;999.90;;;;;;;17.15;100.00;95803.56;5098736;28;20190;-57
2022/08/10 00:25:36;;;;;;;1999.90;999.90;;;;;;;17.18;100.00;95801.91;5098732;28;20190;-58
2022/08/10 00:28:01;;;;;;;1999.90;999.90;;;;;;;17.15;100.00;95797.28;5098573;28;20223;-58
2022/08/10 00:30:27;;;;;;;1999.90;999.90;;;;;;;17.14;100.00;95801.25;5098780;28;20176;-58
2022/08/10 00:32:52;;;;;;;1999.90;999.90;;;;;;;17.09;100.00;95793.50;5098524;28;20183;-58
2022/08/10 00:35:18;;;;;;;1999.90;999.90;;;;;;;17.09;100.00;95799.81;5098424;28;20186;-67
2022/08/10 00:37:43;;;;;;;1999.90;999.90;;;;;;;17.03;100.00;95784.97;5098398;28;20526;-62
2022/08/10 00:40:09;;;;;;;1999.90;999.90;;;;;;;17.02;100.00;95790.94;5098277;28;20211;-62
2022/08/10 00:42:35;;;;;;;1999.90;999.90;;;;;;;16.97;100.00;95786.69;5098419;28;20184;-61
2022/08/10 00:45:01;;;;;;;1999.90;999.90;;;;;;;16.93;100.00;95785.25;5098603;28;20192;-61
2022/08/10 00:47:26;;;;;;;1999.90;999.90;;;;;;;16.92;100.00;95781.72;5098344;28;20188;-61
2022/08/10 00:49:51;;;;;;;1999.90;999.90;;;;;;;16.90;100.00;95781.38;5098298;28;20183;-62
2022/08/10 00:52:18;;;;;;;1999.90;999.90;;;;;;;16.86;100.00;95777.19;5098229;28;20187;-61
2022/08/10 00:54:45;;;;;;;1999.90;999.90;;;;;;;16.80;100.00;95774.16;5098203;28;20188;-61
2022/08/10 00:57:13;;;;;;;1999.90;999.90;;;;;;;16.78;100.00;95778.56;5098293;28;20188;-56
2022/08/10 00:59:39;;;;;;;1999.90;999.90;;;;;;;16.80;100.00;95782.44;5098581;28;20183;-57
2022/08/10 01:02:04;;;;;;;1999.90;999.90;;;;;;;16.80;100.00;95765.09;5098189;28;20266;-58
2022/08/10 01:04:30;;;;;;;1999.90;999.90;;;;;;;16.76;100.00;95765.22;5097948;28;20266;-58
2022/08/10 01:07:21;;;;;;;1999.90;999.90;;;;;;;16.69;100.00;95748.06;5098102;28;20183;-57
2022/08/10 01:09:50;;;;;;;1999.90;999.90;;;;;;;16.70;100.00;95744.09;5097025;28;20337;-57
2022/08/10 01:12:21;;;;;;;1999.90;999.90;;;;;;;16.74;100.00;95750.28;5098297;28;20183;-70
2022/08/10 01:15:23;;;;;;;1999.90;999.90;;;;;;;16.65;100.00;95739.09;5097863;28;20187;-60
2022/08/10 01:17:57;;;;;;;1999.90;999.90;;;;;;;16.59;100.00;95735.31;5098392;28;20232;-61
2022/08/10 01:20:25;;;;;;;1999.90;999.90;;;;;;;16.62;100.00;95726.19;5097512;28;20344;-60
2022/08/10 01:23:19;;;;;;;1999.90;999.90;;;;;;;16.54;100.00;95722.06;5097735;28;20256;-61
2022/08/10 01:25:51;;;;;;;1999.90;999.90;;;;;;;16.48;100.00;95715.50;5097703;28;20188;-61
2022/08/10 01:28:36;;;;;;;1999.90;999.90;;;;;;;16.40;100.00;95709.38;5097625;28;20195;-61
2022/08/10 01:31:04;;;;;;;1999.90;999.90;;;;;;;16.39;100.00;95702.31;5097990;28;20187;-61
2022/08/10 01:33:35;;;;;;;1999.90;999.90;;;;;;;16.37;100.00;95690.94;5098403;28;20212;-72
2022/08/10 01:36:13;;;;;;;1999.90;999.90;;;;;;;16.36;100.00;95692.91;5098345;28;20188;-71
2022/08/10 01:38:46;;;;;;;1999.90;999.90;;;;;;;16.31;100.00;95690.69;5097439;28;20176;-71
2022/08/10 01:41:20;;;;;;;1999.90;999.90;;;;;;;16.26;100.00;95682.97;5098037;28;20214;-74
2022/08/10 01:43:53;;;;;;;1999.90;999.90;;;;;;;16.25;100.00;95686.91;5097332;28;20184;-71
2022/08/10 01:46:22;;;;;;;1999.90;999.90;;;;;;;16.25;100.00;95680.63;5097724;28;20191;-70
2022/08/10 01:48:51;;;;;;;1999.90;999.90;;;;;;;16.20;100.00;95679.16;5097521;28;20226;-61
2022/08/10 01:51:22;;;;;;;1999.90;999.90;;;;;;;16.13;100.00;95673.03;5097070;28;20191;-64
2022/08/10 01:53:53;;;;;;;1999.90;999.90;;;;;;;16.11;100.00;95665.22;5097662;28;20256;-61
2022/08/10 01:56:21;;;;;;;1999.90;999.90;;;;;;;16.14;100.00;95667.09;5097318;28;20630;-62
2022/08/10 01:58:49;;;;;;;1999.90;999.90;;;;;;;16.11;100.00;95665.22;5115260;28;20184;-61
2022/08/10 02:01:18;;;;;;;1999.90;999.90;;;;;;;16.12;100.00;95661.28;5096942;28;20208;-60
2022/08/10 02:03:49;;;;;;;1999.90;999.90;;;;;;;16.08;100.00;95668.84;5115078;28;20184;-60
2022/08/10 02:06:17;;;;;;;1999.90;999.90;;;;;;;16.10;100.00;95676.69;5097179;28;20200;-61
2022/08/10 02:08:46;;;;;;;1999.90;999.90;;;;;;;16.01;100.00;95671.78;5096754;28;20203;-60
2022/08/10 02:11:13;;;;;;;1999.90;999.90;;;;;;;15.93;100.00;95658.59;5096901;28;20195;-63
2022/08/10 02:13:42;;;;;;;1999.90;999.90;;;;;;;15.88;100.00;95659.88;5097115;28;20187;-60
2022/08/10 02:16:10;;;;;;;1999.90;999.90;;;;;;;15.85;100.00;95657.25;5096781;28;20198;-61
2022/08/10 02:18:39;;;;;;;1999.90;999.90;;;;;;;15.86;100.00;95653.28;5096714;28;20196;-61
2022/08/10 02:21:06;;;;;;;1999.90;999.90;;;;;;;15.79;100.00;95643.22;5096264;28;20211;-60
2022/08/10 02:23:34;;;;;;;1999.90;999.90;;;;;;;15.78;100.00;95646.38;5096949;28;20198;-60
2022/08/10 02:26:01;;;;;;;1999.90;999.90;;;;;;;15.77;100.00;95645.59;5096939;28;20199;-58
2022/08/10 02:28:29;;;;;;;1999.90;999.90;;;;;;;15.77;100.00;95651.09;5096777;28;20190;-58
2022/08/10 02:30:58;;;;;;;1999.90;999.90;;;;;;;15.74;100.00;95640.94;5097081;28;20202;-58
2022/08/10 02:33:26;;;;;;;1999.90;999.90;;;;;;;15.73;100.00;95644.91;5096684;28;20183;-58
2022/08/10 02:35:53;;;;;;;1999.90;999.90;;;;;;;15.72;100.00;95637.88;5096555;28;20257;-58
2022/08/10 02:38:26;;;;;;;1999.90;999.90;;;;;;;15.69;100.00;95633.22;5096700;28;20237;-58
2022/08/10 02:40:57;;;;;;;1999.90;999.90;;;;;;;15.67;100.00;95624.59;5096685;28;20243;-57
2022/08/10 02:43:34;;;;;;;1999.90;999.90;;;;;;;15.61;100.00;95614.53;5097025;28;20187;-57
2022/08/10 02:46:09;;;;;;;1999.90;999.90;;;;;;;15.61;100.00;95615.31;5097144;28;20184;-58
2022/08/10 02:48:43;;;;;;;1999.90;999.90;;;;;;;15.50;100.00;95614.81;5096500;28;20187;-60
2022/08/10 02:51:23;;;;;;;1999.90;999.90;;;;;;;15.56;100.00;95612.31;5096698;28;20195;-60
2022/08/10 02:53:55;;;;;;;1999.90;999.90;;;;;;;15.52;100.00;95611.63;5096531;28;20278;-60
2022/08/10 02:56:42;;;;;;;1999.90;999.90;;;;;;;15.45;100.00;95607.03;5096767;28;20233;-59
2022/08/10 02:59:14;;;;;;;1999.90;999.90;;;;;;;15.41;100.00;95594.59;5096911;28;20191;-60
2022/08/10 03:01:46;;;;;;;1999.90;999.90;;;;;;;15.37;100.00;95602.16;5096280;28;20210;-58
2022/08/10 03:04:35;;;;;;;1999.90;999.90;;;;;;;15.37;100.00;95600.16;5096800;28;20200;-61
2022/08/10 03:07:04;;;;;;;1999.90;999.90;;;;;;;15.35;100.00;95601.75;5096596;28;20191;-60
2022/08/10 03:09:32;;;;;;;1999.90;999.90;;;;;;;15.28;100.00;95594.44;5095991;28;20208;-60
2022/08/10 03:11:59;;;;;;;1999.90;999.90;;;;;;;15.26;100.00;95594.09;5096155;28;20240;-61
2022/08/10 03:14:27;;;;;;;1999.90;999.90;;;;;;;15.26;100.00;95582.31;5096405;28;20214;-60
2022/08/10 03:16:55;;;;;;;1999.90;999.90;;;;;;;15.22;100.00;95579.66;5095958;28;20187;-61
2022/08/10 03:19:23;;;;;;;1999.90;999.90;;;;;;;15.14;100.00;95582.97;5095768;28;20194;-61
2022/08/10 03:21:52;;;;;;;1999.90;999.90;;;;;;;15.10;100.00;95583.06;5095981;28;20219;-57
2022/08/10 03:24:21;;;;;;;1999.90;999.90;;;;;;;15.08;100.00;95582.72;5095887;28;20199;-57
2022/08/10 03:26:49;;;;;;;1999.90;999.90;;;;;;;15.04;100.00;95573.75;5095754;28;20266;-57
2022/08/10 03:29:17;;;;;;;1999.90;999.90;;;;;;;14.99;100.00;95579.78;5095713;28;20180;-57
2022/08/10 03:31:44;;;;;;;1999.90;999.90;;;;;;;14.93;100.00;95575.97;5096073;28;20188;-56
2022/08/10 03:34:11;;;;;;;1999.90;999.90;;;;;;;14.93;100.00;95570.47;5098969;28;20317;-57
2022/08/10 03:36:36;;;;;;;1999.90;999.90;;;;;;;14.93;100.00;95578.72;5099443;28;20187;-57
2022/08/10 03:39:02;;;;;;;1999.90;999.90;;;;;;;14.90;100.00;95568.56;5100013;28;20191;-76
2022/08/10 03:41:36;;;;;;;1999.90;999.90;;;;;;;14.89;100.00;95572.53;5099614;28;20294;-62
2022/08/10 03:44:04;;;;;;;1999.90;999.90;;;;;;;14.85;100.00;95569.09;5099837;28;20211;-61
2022/08/10 03:46:31;;;;;;;1999.90;999.90;;;;;;;14.84;100.00;95559.28;5099713;28;20286;-61
2022/08/10 03:49:01;;;;;;;1999.90;999.90;;;;;;;14.86;100.00;95562.38;5099035;28;20187;-61
2022/08/10 03:51:27;;;;;;;1999.90;999.90;;;;;;;14.77;100.00;95567.69;5099169;28;20187;-62
2022/08/10 03:53:53;;;;;;;1999.90;999.90;;;;;;;14.81;100.00;95568.41;5099405;28;20192;-61
2022/08/10 03:56:20;;;;;;;1999.90;999.90;;;;;;;14.80;100.00;95566.06;5099155;28;20241;-60
2022/08/10 03:58:46;;;;;;;1999.90;999.90;;;;;;;14.79;100.00;95554.28;5098746;28;20179;-59
2022/08/10 04:01:13;;;;;;;1999.90;999.90;;;;;;;14.76;100.00;95560.66;5099205;28;20238;-61
2022/08/10 04:03:38;;;;;;;1999.90;999.90;;;;;;;14.78;100.00;95568.44;5098998;28;20302;-62
2022/08/10 04:06:04;;;;;;;1999.90;999.90;;;;;;;14.73;100.00;95567.00;5099070;28;20218;-61
2022/08/10 04:08:31;;;;;;;1999.90;999.90;;;;;;;14.75;100.00;95570.09;5098776;28;20180;-62
2022/08/10 04:10:56;;;;;;;1999.90;999.90;;;;;;;14.78;100.00;95574.75;5098881;28;20195;-60
2022/08/10 04:13:22;;;;;;;1999.90;999.90;;;;;;;14.80;100.00;95586.09;5099188;28;20200;-62
2022/08/10 04:15:48;;;;;;;1999.90;999.90;;;;;;;14.78;100.00;95577.50;5099284;28;20184;-62
2022/08/10 04:18:13;;;;;;;1999.90;999.90;;;;;;;15.02;100.00;95581.69;5098724;28;20187;-62
2022/08/10 04:20:47;;;;;;;1999.90;999.90;;;;;;;15.18;100.00;95602.94;5098927;28;20221;-62
2022/08/10 04:23:23;;;;;;;1999.90;999.90;;;;;;;15.49;100.00;95626.25;5099179;28;20188;-63
2022/08/10 04:25:49;;;;;;;1999.90;999.90;;;;;;;15.69;100.00;95660.75;5099002;28;20179;-62
2022/08/10 04:28:15;;;;;;;1999.90;999.90;;;;;;;15.75;100.00;95685.78;5098569;28;20215;-62
2022/08/10 04:30:43;;;;;;;1999.90;999.90;;;;;;;15.87;100.00;95688.66;5098961;28;20215;-62
2022/08/10 04:33:12;;;;;;;1999.90;999.90;;;;;;;15.98;100.00;95700.19;5098503;28;20212;-62
2022/08/10 04:35:38;;;;;;;1999.90;999.90;;;;;;;16.06;100.00;95709.81;5098411;28;20180;-67
2022/08/10 04:38:05;;;;;;;1999.90;999.90;;;;;;;15.93;100.00;95714.50;5098517;28;20184;-66
2022/08/10 04:40:31;;;;;;;1999.90;999.90;;;;;;;16.04;100.00;95715.00;5098015;28;20214;-67
2022/08/10 04:43:06;;;;;;;1999.90;999.90;;;;;;;16.21;100.00;95724.06;5098935;28;20183;-66
2022/08/10 04:45:32;;;;;;;1999.90;999.90;;;;;;;16.25;100.00;95728.25;5097822;28;20223;-68
2022/08/10 04:47:58;;;;;;;1999.90;999.90;;;;;;;16.44;100.00;95732.16;5098172;28;20232;-67
2022/08/10 04:50:24;;;;;;;1999.90;999.90;;;;;;;16.49;100.00;95739.13;5098290;28;20282;-66
2022/08/10 04:52:50;;;;;;;1999.90;999.90;;;;;;;16.59;100.00;95755.41;5098319;28;20187;-61
2022/08/10 04:55:16;;;;;;;1999.90;999.90;;;;;;;16.68;100.00;95752.03;5098420;28;20187;-63
2022/08/10 04:57:41;;;;;;;1999.90;999.90;;;;;;;17.01;100.00;95759.78;5098480;28;20190;-61
2022/08/10 05:00:07;;;;;;;1999.90;999.90;;;;;;;17.56;100.00;95783.53;5098322;28;20211;-61
2022/08/10 05:02:33;;;;;;;1999.90;999.90;;;;;;;17.74;100.00;95800.38;5116109;28;20203;-61
2022/08/10 05:04:58;;;;;;;1999.90;999.90;;;;;;;18.49;100.00;95817.81;5097710;28;20237;-61
2022/08/10 05:07:24;;;;;;;1999.90;999.90;;;;;;;19.35;100.00;95878.25;5098038;28;20230;-63
2022/08/10 05:09:51;;;;;;;1999.90;999.90;;;;;;;19.94;100.00;95877.31;5098063;28;20196;-62
2022/08/10 05:12:16;;;;;;;1999.90;999.90;;;;;;;20.63;100.00;95909.97;5097991;28;20192;-68
2022/08/10 05:14:42;;;;;;;1999.90;999.90;;;;;;;20.80;100.00;95927.94;5097717;28;20245;-62
2022/08/10 05:17:07;;;;;;;1999.90;999.90;;;;;;;20.78;100.00;95924.84;5098041;28;20188;-62
2022/08/10 05:19:33;;;;;;;1999.90;999.90;;;;;;;21.86;100.00;95936.25;5097965;28;20219;-62
2022/08/10 05:21:58;;;;;;;1999.90;999.90;;;;;;;22.87;96.87;95957.19;5097700;28;20295;-62
2022/08/10 05:24:23;;;;;;;1999.90;999.90;;;;;;;23.16;91.64;95955.38;5097734;28;20183;-62
2022/08/10 05:26:49;;;;;;;1999.90;999.90;;;;;;;23.80;87.20;95964.97;5097641;28;20184;-62
2022/08/10 05:29:14;;;;;;;1999.90;999.90;;;;;;;24.02;84.82;95981.41;5097614;28;20176;-63
2022/08/10 05:31:40;;;;;;;1999.90;999.90;;;;;;;24.17;83.14;95983.00;5115860;28;20191;-64
2022/08/10 05:34:05;;;;;;;1999.90;999.90;;;;;;;23.95;81.74;95981.78;5097525;28;20180;-70
2022/08/10 05:36:32;;;;;;;1999.90;999.90;;;;;;;24.18;82.54;95972.63;5098065;28;20184;-66
2022/08/10 05:38:59;;;;;;;1999.90;999.90;;;;;;;23.78;82.01;95975.06;5098051;28;20183;-67
2022/08/10 05:41:27;;;;;;;1999.90;999.90;;;;;;;24.43;79.55;95972.84;5097730;28;20199;-67
2022/08/10 05:43:53;;;;;;;1999.90;999.90;;;;;;;24.69;77.77;95984.28;5097408;28;20281;-65
2022/08/10 05:46:18;;;;;;;1999.90;999.90;;;;;;;24.92;77.51;95986.22;5097427;28;20179;-65
2022/08/10 05:48:43;;;;;;;1999.90;999.90;;;;;;;25.75;73.03;95988.31;5097903;28;20180;-65
2022/08/10 05:51:09;;;;;;;1999.90;999.90;;;;;;;25.68;72.31;95991.53;5097288;28;20278;-61
2022/08/10 05:53:37;;;;;;;1999.90;999.90;;;;;;;25.23;71.03;95994.84;5097135;28;20183;-61
2022/08/10 05:56:06;;;;;;;1999.90;999.90;;;;;;;24.16;77.02;95994.66;5096123;28;20184;-61
2022/08/10 05:58:32;;;;;;;1999.90;999.90;;;;;;;22.73;84.78;95988.50;5097396;28;20187;-61
2022/08/10 06:01:01;;;;;;;1999.90;999.90;;;;;;;25.00;77.54;95988.16;5097390;28;20196;-60
2022/08/10 06:03:31;;;;;;;1999.90;999.90;;;;;;;25.31;72.44;95990.44;5096971;28;20211;-60
2022/08/10 06:05:58;;;;;;;1999.90;999.90;;;;;;;26.42;69.29;96004.72;5097621;28;20187;-61
2022/08/10 06:08:27;;;;;;;1999.90;999.90;;;;;;;26.23;68.67;96000.69;5114062;28;20175;-65
2022/08/10 06:10:55;;;;;;;1999.90;999.90;;;;;;;25.61;72.27;96005.16;5096981;28;20195;-66
2022/08/10 06:16:11;;;;;;;1999.90;999.90;;;;;;;26.84;65.56;96002.16;5115392;28;20218;-67
2022/08/10 06:18:36;;;;;;;1999.90;999.90;;;;;;;26.50;65.34;96005.06;5096943;28;20176;-65
2022/08/10 06:21:03;;;;;;;1999.90;999.90;;;;;;;27.55;63.71;96007.66;5096835;28;20219;-65
2022/08/10 06:23:30;;;;;;;1999.90;999.90;;;;;;;27.32;62.41;96013.59;5096661;28;20186;-63
2022/08/10 06:25:56;;;;;;;1999.90;999.90;;;;;;;26.47;64.60;96000.47;5097011;28;20195;-70
2022/08/10 06:28:22;;;;;;;1999.90;999.90;;;;;;;28.06;59.75;95993.44;5096439;28;20175;-62
2022/08/10 06:30:53;;;;;;;1999.90;999.90;;;;;;;28.04;60.35;96006.44;5096405;28;20190;-61
2022/08/10 06:33:21;;;;;;;1999.90;999.90;;;;;;;28.20;58.96;96003.72;5114727;28;20243;-62
2022/08/10 06:35:52;;;;;;;1999.90;999.90;;;;;;;27.93;57.68;96001.53;5096556;28;20202;-62
2022/08/10 06:38:18;;;;;;;1999.90;999.90;;;;;;;26.18;66.42;95990.16;5097145;28;20188;-60
2022/08/10 06:40:45;;;;;;;1999.90;999.90;;;;;;;27.34;63.39;95994.19;5096447;28;20208;-60
2022/08/10 06:43:15;;;;;;;1999.90;999.90;;;;;;;27.71;60.23;95995.75;5113463;28;20179;-70
2022/08/10 06:45:47;;;;;;;1999.90;999.90;;;;;;;27.84;58.08;95986.94;5096343;28;20283;-66
2022/08/10 06:48:34;;;;;;;1999.90;999.90;;;;;;;25.88;66.65;95987.97;5096551;28;20242;-66
2022/08/10 06:51:04;;;;;;;1999.90;999.90;;;;;;;26.84;64.46;95985.31;5096007;28;20282;-65
2022/08/10 06:53:45;;;;;;;1999.90;999.90;;;;;;;27.17;63.25;95988.44;5096612;28;20180;-64
2022/08/10 06:56:14;;;;;;;1999.90;999.90;;;;;;;27.59;60.09;95974.50;5096266;28;20195;-66
2022/08/10 06:59:16;;;;;;;1999.90;999.90;;;;;;;27.70;58.79;95987.81;5096340;28;20179;-66
2022/08/10 07:01:45;;;;;;;1999.90;999.90;;;;;;;28.09;58.59;95980.41;5113777;28;20250;-61
2022/08/10 07:04:31;;;;;;;1999.90;999.90;;;;;;;28.33;58.55;95977.94;5096196;28;20189;-69
2022/08/10 07:07:03;;;;;;;1999.90;999.90;;;;;;;27.37;58.18;95982.75;5095421;28;20199;-68
2022/08/10 07:09:31;;;;;;;1999.90;999.90;;;;;;;27.57;56.81;95996.69;5096217;28;20302;-75
2022/08/10 07:11:58;;;;;;;1999.90;999.90;;;;;;;27.01;61.97;95977.84;5095998;28;20186;-69
2022/08/10 07:14:24;;;;;;;1999.90;999.90;;;;;;;28.29;57.83;95974.63;5095802;28;20195;-69
2022/08/10 07:16:51;;;;;;;1999.90;999.90;;;;;;;28.78;53.56;95973.25;5096116;28;20179;-69
2022/08/10 07:19:18;;;;;;;1999.90;999.90;;;;;;;29.05;51.34;95993.03;5095995;28;20271;-62
2022/08/10 07:21:44;;;;;;;1999.90;999.90;;;;;;;29.00;50.22;95968.44;5096103;28;20200;-70
2022/08/10 07:24:12;;;;;;;1999.90;999.90;;;;;;;28.50;52.14;95964.75;5096007;28;20194;-65
2022/08/10 07:26:44;;;;;;;1999.90;999.90;;;;;;;28.11;51.76;95963.81;5114011;28;20198;-63
2022/08/10 07:29:12;;;;;;;1999.90;999.90;;;;;;;30.04;48.46;95964.03;5095686;28;20175;-63
2022/08/10 07:31:39;;;;;;;1999.90;999.90;;;;;;;29.31;49.11;95964.66;5095984;28;20252;-66
2022/08/10 07:34:06;;;;;;;1999.90;999.90;;;;;;;30.41;45.95;95953.13;5096200;28;20249;-66
2022/08/10 07:36:32;;;;;;;1999.90;999.90;;;;;;;29.29;49.42;95953.13;5095625;28;20188;-63
2022/08/10 07:38:59;;;;;;;1999.90;999.90;;;;;;;31.64;42.09;95946.88;5095917;28;20288;-63
2022/08/10 07:41:29;;;;;;;1999.90;999.90;;;;;;;31.16;43.49;95955.22;5095632;28;20211;-64
2022/08/10 07:43:56;;;;;;;1999.90;999.90;;;;;;;31.33;41.57;95958.72;5096265;28;20179;-64
2022/08/10 07:46:25;;;;;;;1999.90;999.90;;;;;;;30.95;44.28;95968.22;5095481;28;20191;-64
2022/08/10 07:48:59;;;;;;;1999.90;999.90;;;;;;;30.77;42.34;95951.94;5095613;28;20208;-61
2022/08/10 07:51:26;;;;;;;1999.90;999.90;;;;;;;31.45;41.10;95956.56;5095463;28;20223;-61
2022/08/10 07:53:55;;;;;;;1999.90;999.90;;;;;;;31.86;39.98;95960.78;5095601;28;20225;-61
2022/08/10 07:56:25;;;;;;;1999.90;999.90;;;;;;;31.63;40.11;95965.13;5096359;28;20184;-70
2022/08/10 07:58:56;;;;;;;1999.90;999.90;;;;;;;30.37;41.33;95952.63;5095248;28;20215;-68
2022/08/10 08:01:26;;;;;;;1999.90;999.90;;;;;;;31.17;39.19;95957.53;5095236;28;20200;-75
2022/08/10 08:03:54;;;;;;;1999.90;999.90;;;;;;;30.54;40.21;95965.38;5095315;28;20183;-72
2022/08/10 08:06:20;;;;;;;1999.90;999.90;;;;;;;31.36;39.11;95957.69;5095724;28;20270;-69
2022/08/10 08:08:45;;;;;;;1999.90;999.90;;;;;;;29.00;40.66;95959.22;5095398;28;20204;-70
2022/08/10 08:11:14;;;;;;;1999.90;999.90;;;;;;;29.77;40.66;95962.03;5095317;28;20256;-69
2022/08/10 08:13:39;;;;;;;1999.90;999.90;;;;;;;28.91;42.14;95965.09;5095188;28;20188;-67
2022/08/10 08:16:06;;;;;;;1999.90;999.90;;;;;;;28.97;42.23;95963.03;5095581;28;20183;-62
2022/08/10 08:18:34;;;;;;;1999.90;999.90;;;;;;;28.54;42.74;95961.72;5096072;28;20195;-61
2022/08/10 08:21:01;;;;;;;1999.90;999.90;;;;;;;29.69;41.90;95967.44;5098582;28;20203;-59
2022/08/10 08:23:27;;;;;;;1999.90;999.90;;;;;;;28.10;42.40;95979.16;5098546;28;20180;-60
2022/08/10 08:25:54;;;;;;;1999.90;999.90;;;;;;;28.10;43.23;96004.44;5098776;28;20191;-61
2022/08/10 08:28:20;;;;;;;1999.90;999.90;;;;;;;29.08;41.51;95965.91;5098529;28;20175;-60
2022/08/10 08:30:46;;;;;;;1999.90;999.90;;;;;;;29.44;40.27;95967.69;5098595;28;20192;-61
2022/08/10 08:33:14;;;;;;;1999.90;999.90;;;;;;;28.66;42.27;95982.97;5098898;28;20259;-64
2022/08/10 08:35:40;;;;;;;1999.90;999.90;;;;;;;29.31;42.34;95959.00;5116637;28;20175;-59
2022/08/10 08:38:06;;;;;;;1999.90;999.90;;;;;;;29.65;40.46;95978.22;5098215;28;20207;-60
2022/08/10 08:40:35;;;;;;;1999.90;999.90;;;;;;;30.08;39.88;95958.88;5098115;28;20231;-60
2022/08/10 08:43:33;;;;;;;1999.90;999.90;;;;;;;30.10;38.89;95979.63;5098269;28;20184;-60
2022/08/10 08:46:18;;;;;;;1999.90;999.90;;;;;;;31.53;38.06;95969.56;5098126;28;20200;-60
2022/08/10 08:49:05;;;;;;;1999.90;999.90;;;;;;;30.94;36.11;95961.03;5098049;28;20188;-60
2022/08/10 08:51:55;;;;;;;1999.90;999.90;;;;;;;29.24;39.22;95977.16;5098311;28;20188;-61
2022/08/10 08:54:21;;;;;;;1999.90;999.90;;;;;;;28.89;40.47;95978.91;5098216;28;20270;-61
2022/08/10 08:57:12;;;;;;;1999.90;999.90;;;;;;;29.98;39.48;95954.81;5098111;28;20222;-66
2022/08/10 09:00:02;;;;;;;1999.90;999.90;;;;;;;30.10;39.37;95961.94;5098374;28;20218;-63
2022/08/10 09:02:46;;;;;;;1999.90;999.90;;;;;;;28.57;41.38;95957.88;5098538;28;20184;-66
2022/08/10 09:05:29;;;;;;;1999.90;999.90;;;;;;;29.45;40.92;95955.13;5098032;28;20212;-64
2022/08/10 09:08:01;;;;;;;1999.90;999.90;;;;;;;30.64;38.73;95948.91;5098275;28;20183;-65
2022/08/10 09:10:59;;;;;;;1999.90;999.90;;;;;;;30.58;39.12;95950.97;5098093;28;20229;-70
2022/08/10 09:13:33;;;;;;;1999.90;999.90;;;;;;;31.18;38.46;95952.66;5097917;28;20187;-69
2022/08/10 09:16:04;;;;;;;1999.90;999.90;;;;;;;30.76;38.73;95964.50;5098323;28;20175;-74
2022/08/10 09:19:11;;;;;;;1999.90;999.90;;;;;;;29.17;40.40;95943.16;5097870;28;20180;-70
2022/08/10 09:22:15;;;;;;;1999.90;999.90;;;;;;;30.99;37.11;95955.34;5097729;28;20212;-71
2022/08/10 09:24:52;;;;;;;1999.90;999.90;;;;;;;29.13;39.98;95965.16;5084432;28;20198;-69
2022/08/10 09:27:28;;;;;;;1999.90;999.90;;;;;;;29.07;40.18;95961.56;5097735;28;20207;-61
2022/08/10 09:29:56;;;;;;;1999.90;999.90;;;;;;;29.05;39.33;95958.47;5097138;28;20198;-62
2022/08/10 09:32:47;;;;;;;1999.90;999.90;;;;;;;29.31;39.84;95959.00;5096983;28;20184;-61
2022/08/10 09:35:20;;;;;;;1999.90;999.90;;;;;;;29.64;38.42;95947.75;5097975;28;20221;-61
2022/08/10 09:37:57;;;;;;;1999.90;999.90;;;;;;;30.19;37.75;95953.22;5097738;28;20195;-61
2022/08/10 09:40:38;;;;;;;1999.90;999.90;;;;;;;29.65;37.78;95954.91;5097806;28;20294;-61
2022/08/10 09:43:13;;;;;;;1999.90;999.90;;;;;;;29.14;38.75;95949.78;5097606;28;20187;-60
2022/08/10 09:45:44;;;;;;;1999.90;999.90;;;;;;;29.81;37.46;95951.25;5097192;28;20210;-71
2022/08/10 09:48:21;;;;;;;1999.90;999.90;;;;;;;29.30;37.13;95972.31;5097088;28;20202;-60
2022/08/10 09:51:13;;;;;;;1999.90;999.90;;;;;;;30.68;35.82;95944.53;5097488;28;20176;-60
2022/08/10 09:54:47;;;;;;;1999.90;999.90;;;;;;;28.76;38.49;95961.75;5069400;28;20294;-61
2022/08/10 09:57:27;;;;;;;1999.90;999.90;;;;;;;28.46;39.05;95957.84;4996448;28;20198;-61
2022/08/10 10:00:11;;;;;;;1999.90;999.90;;;;;;;29.06;38.61;95948.78;4997095;28;20270;-62
2022/08/10 10:02:50;;;;;;;1999.90;999.90;;;;;;;29.62;37.10;95961.56;5065204;28;20210;-59
2022/08/10 10:05:37;;;;;;;1999.90;999.90;;;;;;;30.17;36.40;95962.22;5096934;28;20192;-64
2022/08/10 10:08:09;;;;;;;1999.90;999.90;;;;;;;29.82;37.05;95952.81;5096959;28;20202;-61
2022/08/10 10:10:49;;;;;;;1999.90;999.90;;;;;;;30.12;36.11;95970.66;5096677;28;20208;-62
2022/08/10 10:13:30;;;;;;;1999.90;999.90;;;;;;;29.08;38.22;95957.47;5097253;28;20197;-60
2022/08/10 10:16:12;;;;;;;1999.90;999.90;;;;;;;29.28;38.50;95962.84;5096630;28;20192;-61
2022/08/10 10:18:46;;;;;;;1999.90;999.90;;;;;;;28.69;38.92;95948.19;5114718;28;20176;-62
2022/08/10 10:21:32;;;;;;;1999.90;999.90;;;;;;;28.98;38.89;95951.28;5097349;28;20198;-60
2022/08/10 10:24:13;;;;;;;1999.90;999.90;;;;;;;29.95;38.40;95941.75;5096856;28;20180;-68
2022/08/10 10:26:59;;;;;;;1999.90;999.90;;;;;;;29.82;38.29;95947.19;5096837;28;20179;-62
2022/08/10 10:29:45;;;;;;;1999.90;999.90;;;;;;;28.54;40.62;95956.09;5097523;28;20187;-60
2022/08/10 10:32:21;;;;;;;1999.90;999.90;;;;;;;29.14;40.42;95950.56;5096776;28;20180;-60
2022/08/10 10:34:52;;;;;;;1999.90;999.90;;;;;;;28.86;42.17;95951.78;5097311;28;20183;-63
2022/08/10 10:37:20;;;;;;;1999.90;999.90;;;;;;;29.64;40.64;95925.19;5096929;28;20184;-61
2022/08/10 10:39:51;;;;;;;1999.90;999.90;;;;;;;29.58;41.04;95932.84;5096422;28;20184;-60
2022/08/10 10:42:29;;;;;;;1999.90;999.90;;;;;;;29.29;40.66;95930.59;5095928;28;20206;-64
2022/08/10 10:45:04;;;;;;;1999.90;999.90;;;;;;;29.64;42.29;95919.56;5096888;28;20172;-60
2022/08/10 10:47:52;;;;;;;1999.90;999.90;;;;;;;28.57;42.41;95960.69;5097081;28;20187;-60
2022/08/10 10:50:26;;;;;;;1999.90;999.90;;;;;;;28.84;42.93;95931.84;5096437;28;20236;-61
2022/08/10 10:53:12;;;;;;;1999.90;999.90;;;;;;;28.97;42.18;95927.25;5114138;28;20186;-61
2022/08/10 10:55:55;;;;;;;1999.90;999.90;;;;;;;28.61;44.75;95916.19;5114279;28;20206;-60
2022/08/10 10:58:29;;;;;;;1999.90;999.90;;;;;;;29.06;42.85;95926.25;5096631;28;20188;-60
2022/08/10 11:01:02;;;;;;;1999.90;999.90;;;;;;;28.95;43.81;95931.84;5096894;28;20244;-61
2022/08/10 11:03:46;;;;;;;1999.90;999.90;;;;;;;27.63;45.99;95966.59;5096110;28;20184;-65
2022/08/10 11:06:36;;;;;;;1999.90;999.90;;;;;;;28.50;46.02;95935.88;5096058;28;20187;-67
2022/08/10 11:09:07;;;;;;;1999.90;999.90;;;;;;;28.47;44.28;95950.97;5096047;28;20256;-67
2022/08/10 11:11:40;;;;;;;1999.90;999.90;;;;;;;28.09;44.82;95949.53;5096427;28;20195;-66